Time;durP1;ratioP1;P1;durP2;ratioP2;P2;SDS_P1;SDS_P2;PMS_P1;PMS_P2;Temp;Humidity;BMP_temperature;BMP_pressure;BME280_temperature;BME280_humidity;BME280_pressure;Samples;Min_cycle;Max_cycle;Signal;HPM_P1;HPM_P2
2023/07/11 00:00:48;;;;;;;4.78;4.38;;;;;;;;;;4992481;28;20437;-82
2023/07/11 00:03:14;;;;;;;4.57;4.10;;;;;;;;;;4974807;28;20402;-82
2023/07/11 00:05:40;;;;;;;4.50;4.10;;;;;;;;;;4975252;28;20730;-82
2023/07/11 00:08:07;;;;;;;5.07;4.38;;;;;;;;;;4992684;28;20394;-82
2023/07/11 00:10:33;;;;;;;4.47;4.10;;;;;;;;;;4978240;28;20416;-82
2023/07/11 00:12:59;;;;;;;5.33;4.50;;;;;;;;;;4992316;28;20473;-82
2023/07/11 00:15:25;;;;;;;5.60;4.43;;;;;;;;;;4992302;28;20390;-82
2023/07/11 00:17:51;;;;;;;4.60;4.20;;;;;;;;;;4991937;28;20386;-82
2023/07/11 00:20:17;;;;;;;5.20;4.53;;;;;;;;;;4992254;28;20390;-82
2023/07/11 00:22:45;;;;;;;6.18;4.60;;;;;;;;;;4992216;28;20386;-82
2023/07/11 00:25:12;;;;;;;4.63;4.25;;;;;;;;;;4991371;28;20389;-81
2023/07/11 00:27:37;;;;;;;4.88;4.47;;;;;;;;;;5090211;23;20445;-78
2023/07/11 00:30:05;;;;;;;5.00;4.50;;;;;;;;;;5092269;28;20398;-78
2023/07/11 00:32:30;;;;;;;4.72;4.22;;;;;;;;;;5082539;28;20388;-78
2023/07/11 00:34:56;;;;;;;4.75;4.35;;;;;;;;;;5088543;28;20382;-79
2023/07/11 00:37:22;;;;;;;4.90;4.40;;;;;;;;;;5091619;28;20371;-78
2023/07/11 00:39:49;;;;;;;5.00;4.60;;;;;;;;;;5068854;28;20369;-78
2023/07/11 00:42:15;;;;;;;5.50;5.00;;;;;;;;;;5055346;28;20472;-78
2023/07/11 00:45:07;;;;;;;6.32;4.60;;;;;;;;;;5069730;28;20852;-78
2023/07/11 00:47:33;;;;;;;4.97;4.35;;;;;;;;;;5056566;28;20455;-78
2023/07/11 00:50:07;;;;;;;5.03;4.63;;;;;;;;;;5051313;28;20401;-78
2023/07/11 00:52:35;;;;;;;4.80;4.50;;;;;;;;;;5068203;28;20477;-78
2023/07/11 00:55:02;;;;;;;4.93;4.43;;;;;;;;;;5055508;28;20928;-78
2023/07/11 00:57:29;;;;;;;4.68;4.35;;;;;;;;;;5054748;28;20785;-78
2023/07/11 00:59:55;;;;;;;4.95;4.50;;;;;;;;;;5071914;28;20403;-79
2023/07/11 01:02:24;;;;;;;5.25;4.38;;;;;;;;;;5065585;28;20404;-78
2023/07/11 01:04:52;;;;;;;5.00;4.50;;;;;;;;;;5056109;28;20441;-78
2023/07/11 01:07:21;;;;;;;4.97;4.57;;;;;;;;;;5068999;28;20398;-78
2023/07/11 01:09:47;;;;;;;4.75;4.35;;;;;;;;;;5057599;28;20818;-78
2023/07/11 01:12:14;;;;;;;4.95;4.55;;;;;;;;;;5068863;28;20435;-78
2023/07/11 01:14:44;;;;;;;4.97;4.57;;;;;;;;;;5059181;28;20839;-78
2023/07/11 01:17:36;;;;;;;5.03;4.63;;;;;;;;;;5062337;28;20383;-78
2023/07/11 01:20:05;;;;;;;5.07;4.38;;;;;;;;;;5063153;28;20414;-78
2023/07/11 01:22:31;;;;;;;4.65;4.25;;;;;;;;;;5057835;28;20382;-76
2023/07/11 01:24:59;;;;;;;4.55;4.13;;;;;;;;;;5055994;28;20385;-78
2023/07/11 01:27:28;;;;;;;5.10;4.35;;;;;;;;;;5073239;28;20403;-78
2023/07/11 01:29:54;;;;;;;5.03;4.60;;;;;;;;;;5074202;28;20383;-77
2023/07/11 01:32:20;;;;;;;4.80;4.40;;;;;;;;;;5072392;28;20407;-76
2023/07/11 01:34:46;;;;;;;4.90;4.50;;;;;;;;;;5072102;28;20387;-78
2023/07/11 01:37:12;;;;;;;4.88;4.47;;;;;;;;;;5056523;28;20382;-78
2023/07/11 01:39:38;;;;;;;4.78;4.32;;;;;;;;;;5052150;28;20431;-78
2023/07/11 01:42:05;;;;;;;5.00;4.55;;;;;;;;;;5052055;28;20886;-78
2023/07/11 01:44:31;;;;;;;5.30;4.60;;;;;;;;;;5052194;28;20769;-78
2023/07/11 01:46:57;;;;;;;4.73;4.33;;;;;;;;;;5033901;28;20851;-78
2023/07/11 01:49:24;;;;;;;5.27;4.83;;;;;;;;;;5053909;28;20401;-78
2023/07/11 01:51:50;;;;;;;5.00;4.50;;;;;;;;;;5053789;28;20406;-78
2023/07/11 01:54:16;;;;;;;4.68;4.25;;;;;;;;;;5053664;28;20485;-78
2023/07/11 01:56:42;;;;;;;5.20;4.80;;;;;;;;;;5053961;28;20464;-78
2023/07/11 01:59:08;;;;;;;5.00;4.60;;;;;;;;;;5054142;28;20743;-78
2023/07/11 02:01:34;;;;;;;5.10;4.55;;;;;;;;;;5053856;28;20474;-78
2023/07/11 02:04:00;;;;;;;5.10;4.70;;;;;;;;;;5054111;28;20459;-78
2023/07/11 02:06:26;;;;;;;5.10;4.70;;;;;;;;;;5053506;28;20377;-78
2023/07/11 02:08:52;;;;;;;5.03;4.63;;;;;;;;;;5053862;28;20388;-78
2023/07/11 02:11:18;;;;;;;5.00;4.60;;;;;;;;;;5053326;28;20949;-78
2023/07/11 02:13:44;;;;;;;5.45;4.95;;;;;;;;;;5053451;28;20413;-78
2023/07/11 02:16:10;;;;;;;5.43;4.65;;;;;;;;;;5060867;28;20481;-78
2023/07/11 02:18:36;;;;;;;4.88;4.40;;;;;;;;;;5055678;28;20435;-78
2023/07/11 02:21:02;;;;;;;4.95;4.47;;;;;;;;;;5058327;28;20397;-78
2023/07/11 02:23:27;;;;;;;5.00;4.60;;;;;;;;;;5064842;28;20391;-78
2023/07/11 02:25:54;;;;;;;5.00;4.57;;;;;;;;;;5070262;28;20410;-78
2023/07/11 02:28:24;;;;;;;5.18;4.68;;;;;;;;;;5067570;28;20385;-77
2023/07/11 02:30:49;;;;;;;5.10;4.60;;;;;;;;;;5062862;28;20506;-78
2023/07/11 02:33:15;;;;;;;4.90;4.50;;;;;;;;;;5073266;28;20869;-78
2023/07/11 02:35:41;;;;;;;5.00;4.50;;;;;;;;;;5060333;28;20378;-78
2023/07/11 02:38:07;;;;;;;5.00;4.53;;;;;;;;;;5066872;28;20451;-78
2023/07/11 02:40:33;;;;;;;5.22;4.82;;;;;;;;;;5052972;28;20377;-78
2023/07/11 02:42:59;;;;;;;4.65;4.30;;;;;;;;;;5053717;28;20478;-78
2023/07/11 02:45:25;;;;;;;4.88;4.47;;;;;;;;;;5041576;28;20389;-78
2023/07/11 02:47:51;;;;;;;5.00;4.60;;;;;;;;;;5049360;28;20447;-78
2023/07/11 02:50:17;;;;;;;5.32;4.93;;;;;;;;;;5052351;28;20814;-78
2023/07/11 02:52:43;;;;;;;5.25;4.80;;;;;;;;;;5052730;28;20380;-78
2023/07/11 02:55:09;;;;;;;5.55;5.05;;;;;;;;;;5053028;28;20389;-78
2023/07/11 02:57:40;;;;;;;4.97;4.67;;;;;;;;;;5066895;28;20470;-78
2023/07/11 03:00:07;;;;;;;5.13;4.72;;;;;;;;;;5052869;28;20457;-78
2023/07/11 03:02:33;;;;;;;5.45;4.95;;;;;;;;;;5052816;28;20716;-78
2023/07/11 03:04:59;;;;;;;5.55;5.00;;;;;;;;;;5066708;28;20389;-78
2023/07/11 03:07:25;;;;;;;5.20;4.77;;;;;;;;;;5070315;28;20474;-78
2023/07/11 03:09:51;;;;;;;5.87;5.10;;;;;;;;;;5084740;28;20884;-78
2023/07/11 03:12:17;;;;;;;5.55;4.93;;;;;;;;;;5062364;28;20405;-78
2023/07/11 03:14:43;;;;;;;5.57;5.07;;;;;;;;;;5052334;28;20373;-78
2023/07/11 03:17:09;;;;;;;5.32;4.93;;;;;;;;;;5052319;28;20401;-78
2023/07/11 03:19:35;;;;;;;5.90;5.38;;;;;;;;;;5052391;28;20388;-78
2023/07/11 03:22:01;;;;;;;6.00;5.50;;;;;;;;;;5057863;28;20385;-78
2023/07/11 03:24:27;;;;;;;5.50;5.10;;;;;;;;;;5052473;28;20386;-78
2023/07/11 03:26:53;;;;;;;5.63;5.13;;;;;;;;;;5052560;28;20496;-78
2023/07/11 03:29:19;;;;;;;5.72;5.32;;;;;;;;;;5061960;28;20434;-78
2023/07/11 03:31:45;;;;;;;5.40;4.90;;;;;;;;;;5053768;28;20409;-78
2023/07/11 03:34:11;;;;;;;6.05;5.47;;;;;;;;;;5067728;28;20375;-78
2023/07/11 03:36:37;;;;;;;5.50;5.10;;;;;;;;;;5060344;28;20379;-78
2023/07/11 03:39:03;;;;;;;6.05;5.55;;;;;;;;;;5051931;28;20373;-78
2023/07/11 03:41:29;;;;;;;5.50;5.10;;;;;;;;;;5052582;28;20382;-78
2023/07/11 03:43:55;;;;;;;5.22;4.82;;;;;;;;;;5052167;28;20778;-78
2023/07/11 03:46:21;;;;;;;5.43;4.93;;;;;;;;;;5052005;28;20385;-77
2023/07/11 03:48:47;;;;;;;5.28;4.88;;;;;;;;;;5052099;28;20463;-78
2023/07/11 03:51:13;;;;;;;5.10;4.70;;;;;;;;;;5056381;28;20469;-78
2023/07/11 03:53:40;;;;;;;5.15;4.68;;;;;;;;;;5061499;28;20381;-78
2023/07/11 03:56:09;;;;;;;5.40;4.90;;;;;;;;;;5051769;28;20374;-78
2023/07/11 03:58:35;;;;;;;5.40;5.00;;;;;;;;;;5052151;28;20385;-78
2023/07/11 04:01:01;;;;;;;5.10;4.70;;;;;;;;;;5052479;28;20388;-78
2023/07/11 04:03:27;;;;;;;5.15;4.65;;;;;;;;;;5056127;28;20460;-78
2023/07/11 04:05:55;;;;;;;4.93;4.53;;;;;;;;;;5055902;28;20431;-78
2023/07/11 04:08:21;;;;;;;5.35;4.85;;;;;;;;;;5055770;28;20377;-78
2023/07/11 04:10:47;;;;;;;5.60;5.13;;;;;;;;;;5055939;28;20520;-78
2023/07/11 04:13:13;;;;;;;5.27;4.83;;;;;;;;;;5055812;28;20862;-77
2023/07/11 04:15:39;;;;;;;5.30;4.90;;;;;;;;;;5054766;28;20385;-78
2023/07/11 04:18:05;;;;;;;5.53;5.03;;;;;;;;;;5057188;28;20377;-78
2023/07/11 04:20:31;;;;;;;5.90;5.07;;;;;;;;;;5073369;28;20386;-78
2023/07/11 04:22:57;;;;;;;5.90;5.07;;;;;;;;;;5055756;28;20405;-78
2023/07/11 04:25:23;;;;;;;5.20;4.80;;;;;;;;;;5055539;28;20401;-78
2023/07/11 04:27:48;;;;;;;5.60;5.10;;;;;;;;;;5072209;28;20486;-78
2023/07/11 04:30:14;;;;;;;5.20;4.80;;;;;;;;;;5060946;28;20387;-78
2023/07/11 04:32:40;;;;;;;5.25;4.75;;;;;;;;;;5074325;28;20374;-78
2023/07/11 04:35:11;;;;;;;5.05;4.65;;;;;;;;;;5076628;28;20865;-78
2023/07/11 04:37:37;;;;;;;5.28;4.85;;;;;;;;;;5056475;28;20382;-78
2023/07/11 04:40:03;;;;;;;5.63;5.03;;;;;;;;;;5060321;28;20459;-78
2023/07/11 04:42:29;;;;;;;5.45;4.97;;;;;;;;;;5056656;28;20768;-79
2023/07/11 04:44:55;;;;;;;5.77;5.27;;;;;;;;;;5060060;28;20937;-78
2023/07/11 04:47:22;;;;;;;5.50;5.00;;;;;;;;;;5069050;28;20385;-78
2023/07/11 04:49:48;;;;;;;5.90;5.10;;;;;;;;;;5066851;28;20377;-79
2023/07/11 04:52:14;;;;;;;5.30;4.80;;;;;;;;;;5064179;28;20458;-79
2023/07/11 04:54:40;;;;;;;5.23;4.83;;;;;;;;;;5054830;28;20381;-79
2023/07/11 04:57:06;;;;;;;5.60;5.10;;;;;;;;;;5054908;28;20377;-79
2023/07/11 04:59:32;;;;;;;5.03;4.60;;;;;;;;;;5061624;28;20849;-80
2023/07/11 05:01:58;;;;;;;5.50;4.60;;;;;;;;;;5085857;28;20410;-79
2023/07/11 05:04:24;;;;;;;5.35;4.95;;;;;;;;;;5073618;28;20394;-80
2023/07/11 05:06:50;;;;;;;5.10;4.60;;;;;;;;;;5054675;28;20389;-79
2023/07/11 05:09:16;;;;;;;5.53;5.03;;;;;;;;;;5067550;28;20383;-79
2023/07/11 05:11:42;;;;;;;4.90;4.50;;;;;;;;;;5037017;28;20437;-79
2023/07/11 05:14:08;;;;;;;5.35;4.47;;;;;;;;;;5054723;28;20712;-79
2023/07/11 05:16:34;;;;;;;5.43;4.82;;;;;;;;;;5054511;28;20389;-79
2023/07/11 05:19:00;;;;;;;5.17;4.77;;;;;;;;;;5054523;28;20442;-79
2023/07/11 05:21:27;;;;;;;4.97;4.57;;;;;;;;;;5060009;28;20393;-79
2023/07/11 05:23:55;;;;;;;4.95;4.65;;;;;;;;;;5062002;28;20494;-79
2023/07/11 05:26:22;;;;;;;5.30;4.80;;;;;;;;;;5060352;28;20736;-80
2023/07/11 05:28:48;;;;;;;5.13;4.63;;;;;;;;;;5061520;28;20388;-79
2023/07/11 05:31:17;;;;;;;5.10;4.60;;;;;;;;;;5074183;28;20532;-79
2023/07/11 05:33:43;;;;;;;5.07;4.40;;;;;;;;;;5056393;28;20478;-82
2023/07/11 05:38:35;;;;;;;4.32;4.03;;;;;;;;;;5059748;28;20762;-80
2023/07/11 05:41:01;;;;;;;5.05;4.43;;;;;;;;;;5066159;28;20379;-81
2023/07/11 05:43:28;;;;;;;4.57;4.18;;;;;;;;;;5066635;28;20396;-80
2023/07/11 05:45:54;;;;;;;4.85;4.45;;;;;;;;;;5069688;28;20862;-80
2023/07/11 05:48:20;;;;;;;5.55;5.05;;;;;;;;;;5057987;28;20914;-80
2023/07/11 05:51:02;;;;;;;4.95;4.45;;;;;;;;;;5064185;28;20504;-80
2023/07/11 05:53:28;;;;;;;4.72;4.32;;;;;;;;;;5056339;28;20905;-81
2023/07/11 05:55:55;;;;;;;5.00;4.55;;;;;;;;;;5064156;28;20385;-81
2023/07/11 05:58:21;;;;;;;6.15;5.60;;;;;;;;;;5055805;28;20384;-79
2023/07/11 06:00:47;;;;;;;6.35;5.75;;;;;;;;;;5063394;28;20409;-81
2023/07/11 06:03:14;;;;;;;5.05;4.63;;;;;;;;;;5070598;28;20741;-81
2023/07/11 06:05:40;;;;;;;4.85;4.45;;;;;;;;;;5066630;28;20916;-81
2023/07/11 06:08:05;;;;;;;4.60;4.10;;;;;;;;;;5066588;28;20379;-80
2023/07/11 06:10:32;;;;;;;4.80;4.50;;;;;;;;;;5063390;28;20416;-81
2023/07/11 06:12:57;;;;;;;4.50;4.13;;;;;;;;;;5051977;28;20409;-80
2023/07/11 06:15:23;;;;;;;4.90;4.50;;;;;;;;;;5070473;28;20465;-80
2023/07/11 06:17:49;;;;;;;4.90;4.50;;;;;;;;;;5070767;28;20376;-81
2023/07/11 06:20:15;;;;;;;4.18;3.88;;;;;;;;;;5072737;28;20915;-81
2023/07/11 06:22:41;;;;;;;4.57;4.22;;;;;;;;;;5066517;28;20459;-81
2023/07/11 06:25:08;;;;;;;4.60;4.20;;;;;;;;;;5066977;28;20498;-81
2023/07/11 06:27:34;;;;;;;4.82;4.43;;;;;;;;;;5063007;28;20412;-81
2023/07/11 06:30:00;;;;;;;4.75;4.43;;;;;;;;;;5062540;28;20499;-83
2023/07/11 06:32:26;;;;;;;4.87;4.47;;;;;;;;;;5062734;28;20540;-81
2023/07/11 06:34:51;;;;;;;4.80;4.40;;;;;;;;;;5072949;28;20467;-81
2023/07/11 06:37:17;;;;;;;4.70;4.30;;;;;;;;;;5056774;28;20839;-81
2023/07/11 06:39:46;;;;;;;4.87;4.40;;;;;;;;;;5053127;28;20377;-80
2023/07/11 06:42:12;;;;;;;4.85;4.35;;;;;;;;;;5060830;28;20803;-80
2023/07/11 06:44:38;;;;;;;6.90;4.38;;;;;;;;;;5059294;28;20407;-81
2023/07/11 06:47:04;;;;;;;5.25;4.75;;;;;;;;;;5073413;28;20423;-81
2023/07/11 06:49:30;;;;;;;4.90;4.50;;;;;;;;;;5054205;28;20389;-81
2023/07/11 06:51:56;;;;;;;4.80;4.40;;;;;;;;;;5059127;28;20396;-81
2023/07/11 06:54:22;;;;;;;5.18;4.68;;;;;;;;;;5056050;28;20747;-81
2023/07/11 06:56:48;;;;;;;5.30;4.80;;;;;;;;;;5052558;28;20408;-81
2023/07/11 06:59:20;;;;;;;4.93;4.50;;;;;;;;;;5061501;28;20461;-81
2023/07/11 07:01:46;;;;;;;4.40;4.10;;;;;;;;;;5064052;28;20378;-81
2023/07/11 07:04:13;;;;;;;4.95;4.55;;;;;;;;;;5069908;28;20859;-81
2023/07/11 07:06:40;;;;;;;6.43;4.88;;;;;;;;;;5053414;28;20409;-82
2023/07/11 07:09:06;;;;;;;5.13;4.68;;;;;;;;;;5041874;28;20410;-81
2023/07/11 07:11:32;;;;;;;5.57;5.05;;;;;;;;;;5054500;28;20492;-81
2023/07/11 07:13:58;;;;;;;6.70;5.45;;;;;;;;;;5044428;28;20991;-81
2023/07/11 07:16:26;;;;;;;7.50;5.18;;;;;;;;;;5056223;28;20413;-81
2023/07/11 07:18:52;;;;;;;6.22;5.35;;;;;;;;;;5060663;28;20379;-81
2023/07/11 07:21:18;;;;;;;5.60;5.10;;;;;;;;;;5058013;28;20392;-82
2023/07/11 07:23:44;;;;;;;5.45;4.90;;;;;;;;;;5052300;28;20386;-81
2023/07/11 07:26:10;;;;;;;6.18;5.25;;;;;;;;;;5051547;28;20467;-81
2023/07/11 07:28:36;;;;;;;5.47;4.97;;;;;;;;;;5070701;28;20384;-83
2023/07/11 07:31:05;;;;;;;5.70;5.30;;;;;;;;;;5072080;28;20403;-82
2023/07/11 07:33:31;;;;;;;8.18;5.57;;;;;;;;;;5072103;28;20404;-82
2023/07/11 07:35:58;;;;;;;6.57;5.90;;;;;;;;;;5067013;28;20378;-83
2023/07/11 07:38:27;;;;;;;6.70;6.00;;;;;;;;;;5052220;28;20373;-83
2023/07/11 07:40:53;;;;;;;7.57;5.85;;;;;;;;;;5052044;28;20385;-83
2023/07/11 07:43:19;;;;;;;7.10;6.40;;;;;;;;;;5052290;28;20392;-83
2023/07/11 07:45:49;;;;;;;7.40;6.65;;;;;;;;;;5051890;28;20464;-83
2023/07/11 07:48:15;;;;;;;7.80;7.03;;;;;;;;;;5042343;28;20937;-82
2023/07/11 07:50:41;;;;;;;8.40;7.07;;;;;;;;;;5057822;28;20397;-82
2023/07/11 07:53:07;;;;;;;6.63;6.03;;;;;;;;;;5065742;28;20416;-82
2023/07/11 07:55:36;;;;;;;7.03;6.32;;;;;;;;;;5051763;28;20381;-82
2023/07/11 07:58:02;;;;;;;7.75;6.47;;;;;;;;;;5051826;28;20735;-82
2023/07/11 08:00:28;;;;;;;8.27;6.78;;;;;;;;;;5062767;28;20394;-82
2023/07/11 08:02:54;;;;;;;9.98;8.00;;;;;;;;;;5055040;28;20381;-82
2023/07/11 08:05:21;;;;;;;8.60;7.00;;;;;;;;;;5034121;28;20759;-82
2023/07/11 08:07:47;;;;;;;8.65;7.20;;;;;;;;;;5065800;28;20433;-82
2023/07/11 08:10:13;;;;;;;7.75;6.95;;;;;;;;;;5051743;28;20385;-82
2023/07/11 08:12:39;;;;;;;8.43;7.50;;;;;;;;;;5052041;28;20506;-83
2023/07/11 08:15:05;;;;;;;9.47;7.30;;;;;;;;;;5051617;28;20913;-82
2023/07/11 08:17:31;;;;;;;19.60;12.90;;;;;;;;;;5051725;28;20381;-82
2023/07/11 08:19:57;;;;;;;16.52;11.93;;;;;;;;;;5051700;28;20381;-82
2023/07/11 08:22:23;;;;;;;16.55;12.35;;;;;;;;;;5051624;28;20575;-84
2023/07/11 08:24:49;;;;;;;11.82;10.18;;;;;;;;;;5066496;28;20937;-82
2023/07/11 08:27:15;;;;;;;11.85;9.63;;;;;;;;;;5067867;28;20464;-79
2023/07/11 08:29:45;;;;;;;10.88;9.10;;;;;;;;;;5068305;28;20856;-83
2023/07/11 08:32:11;;;;;;;8.20;6.75;;;;;;;;;;5071179;28;20889;-83
2023/07/11 08:34:37;;;;;;;8.32;7.03;;;;;;;;;;5074243;28;20389;-82
2023/07/11 08:37:04;;;;;;;9.13;7.60;;;;;;;;;;5057802;28;20392;-83
2023/07/11 08:39:29;;;;;;;13.63;8.82;;;;;;;;;;5051460;28;20835;-82
2023/07/11 08:41:55;;;;;;;16.80;11.93;;;;;;;;;;5051684;28;20388;-82
2023/07/11 08:44:43;;;;;;;14.57;11.40;;;;;;;;;;5067084;28;20385;-82
2023/07/11 08:47:15;;;;;;;18.70;12.75;;;;;;;;;;5047168;28;20757;-83
2023/07/11 08:49:51;;;;;;;7.15;6.45;;;;;;;;;;5054705;28;20411;-83
2023/07/11 08:52:19;;;;;;;7.93;6.65;;;;;;;;;;5054690;28;20416;-83
2023/07/11 08:54:52;;;;;;;8.90;7.07;;;;;;;;;;5053627;28;20855;-83
2023/07/11 08:57:18;;;;;;;8.88;6.72;;;;;;;;;;5056465;28;20390;-83
2023/07/11 09:00:05;;;;;;;10.37;8.40;;;;;;;;;;5054978;28;20448;-83
2023/07/11 09:02:57;;;;;;;7.13;6.43;;;;;;;;;;5085450;28;20382;-83
2023/07/11 09:05:26;;;;;;;7.10;6.40;;;;;;;;;;5061127;28;20380;-83
2023/07/11 09:07:53;;;;;;;10.43;9.32;;;;;;;;;;5059097;28;20377;-83
2023/07/11 09:10:54;;;;;;;13.70;8.77;;;;;;;;;;5080672;28;20388;-83
2023/07/11 09:13:26;;;;;;;8.60;7.70;;;;;;;;;;4974833;28;20398;-82
2023/07/11 09:15:58;;;;;;;9.00;5.82;;;;;;;;;;5042018;28;20381;-83
2023/07/11 09:18:38;;;;;;;8.30;6.17;;;;;;;;;;5077485;22;20493;-83
2023/07/11 09:21:09;;;;;;;6.05;5.53;;;;;;;;;;5074190;28;20394;-83
2023/07/11 09:23:47;;;;;;;7.90;6.72;;;;;;;;;;5074280;28;20376;-83
2023/07/11 09:26:20;;;;;;;9.25;6.05;;;;;;;;;;5073886;28;20868;-83
2023/07/11 09:28:46;;;;;;;7.60;6.80;;;;;;;;;;5076736;28;20372;-83
2023/07/11 09:31:17;;;;;;;7.47;5.97;;;;;;;;;;5075289;28;20910;-81
2023/07/11 09:33:47;;;;;;;6.93;5.75;;;;;;;;;;5077702;28;20372;-80
2023/07/11 09:36:33;;;;;;;6.80;6.13;;;;;;;;;;5071944;28;20799;-84
2023/07/11 09:39:10;;;;;;;6.18;5.68;;;;;;;;;;5072695;28;20388;-83
2023/07/11 09:41:44;;;;;;;6.40;5.87;;;;;;;;;;5073211;28;20391;-84
2023/07/11 09:44:11;;;;;;;7.07;6.37;;;;;;;;;;5074096;28;20394;-83
2023/07/11 09:46:37;;;;;;;7.10;6.35;;;;;;;;;;5073497;28;20440;-84
2023/07/11 09:49:04;;;;;;;7.80;7.00;;;;;;;;;;5072272;28;20722;-82
2023/07/11 09:51:36;;;;;;;6.97;6.03;;;;;;;;;;5071949;28;20414;-82
2023/07/11 09:54:04;;;;;;;7.25;5.65;;;;;;;;;;5073240;28;20376;-81
2023/07/11 09:56:42;;;;;;;9.07;5.70;;;;;;;;;;5073669;28;20372;-83
2023/07/11 09:59:11;;;;;;;6.43;5.82;;;;;;;;;;5072433;28;20517;-81
2023/07/11 10:01:37;;;;;;;8.18;6.32;;;;;;;;;;5073675;28;20399;-81
2023/07/11 10:04:06;;;;;;;12.45;8.38;;;;;;;;;;5073388;28;20380;-82
2023/07/11 10:06:39;;;;;;;7.87;6.57;;;;;;;;;;5073027;28;20379;-81
2023/07/11 10:09:06;;;;;;;9.30;7.97;;;;;;;;;;5073642;28;20384;-81
2023/07/11 10:11:33;;;;;;;7.53;6.30;;;;;;;;;;5073735;28;20396;-81
2023/07/11 10:13:59;;;;;;;7.85;7.15;;;;;;;;;;5073183;28;20470;-82
2023/07/11 10:16:24;;;;;;;7.00;6.40;;;;;;;;;;5073405;28;20422;-81
2023/07/11 10:18:52;;;;;;;8.65;6.82;;;;;;;;;;5072932;28;20408;-82
2023/07/11 10:21:24;;;;;;;7.68;6.57;;;;;;;;;;5072831;28;20376;-82
2023/07/11 10:23:51;;;;;;;6.93;6.30;;;;;;;;;;5070960;28;20392;-82
2023/07/11 10:26:23;;;;;;;7.30;6.13;;;;;;;;;;5071358;28;20398;-83
2023/07/11 10:28:55;;;;;;;7.80;6.00;;;;;;;;;;5071467;28;20384;-82
2023/07/11 10:31:26;;;;;;;7.33;5.37;;;;;;;;;;5072694;28;20453;-82
2023/07/11 10:33:58;;;;;;;6.60;5.20;;;;;;;;;;5073269;28;20383;-82
2023/07/11 10:36:38;;;;;;;6.32;5.20;;;;;;;;;;5071616;28;20807;-82
2023/07/11 10:39:15;;;;;;;7.35;5.50;;;;;;;;;;5072721;28;20380;-82
2023/07/11 10:41:51;;;;;;;6.95;5.18;;;;;;;;;;5069519;28;20433;-82
2023/07/11 10:44:22;;;;;;;7.38;5.55;;;;;;;;;;5072797;28;20394;-82
2023/07/11 10:46:51;;;;;;;7.18;5.15;;;;;;;;;;5072826;28;20383;-82
2023/07/11 10:49:21;;;;;;;6.50;5.30;;;;;;;;;;5064427;28;20386;-81
2023/07/11 10:51:52;;;;;;;9.25;5.35;;;;;;;;;;5071410;28;20455;-81
2023/07/11 10:54:21;;;;;;;8.82;5.25;;;;;;;;;;5067616;28;20375;-82
2023/07/11 10:56:49;;;;;;;7.38;5.18;;;;;;;;;;5072635;28;20376;-82
2023/07/11 10:59:16;;;;;;;6.35;5.03;;;;;;;;;;5072513;28;20376;-82
2023/07/11 11:01:53;;;;;;;5.23;4.73;;;;;;;;;;5072459;28;20679;-82
2023/07/11 11:04:35;;;;;;;6.75;4.93;;;;;;;;;;5072002;28;20383;-83
2023/07/11 11:07:07;;;;;;;5.47;4.97;;;;;;;;;;5072480;28;20903;-82
2023/07/11 11:09:40;;;;;;;6.35;4.68;;;;;;;;;;5072260;28;20489;-82
2023/07/11 11:12:18;;;;;;;6.47;4.85;;;;;;;;;;5071513;28;20411;-82
2023/07/11 11:14:47;;;;;;;5.20;4.70;;;;;;;;;;5070467;28;20445;-83
2023/07/11 11:17:27;;;;;;;6.25;4.55;;;;;;;;;;5068197;28;20377;-83
2023/07/11 11:19:55;;;;;;;4.82;4.43;;;;;;;;;;5070570;28;20383;-83
2023/07/11 11:22:27;;;;;;;5.18;4.40;;;;;;;;;;5070650;28;20391;-83
2023/07/11 11:25:00;;;;;;;5.75;4.38;;;;;;;;;;5065148;28;20376;-83
2023/07/11 11:27:29;;;;;;;4.88;4.38;;;;;;;;;;5071359;28;20416;-83
2023/07/11 11:30:14;;;;;;;6.03;4.70;;;;;;;;;;5072169;28;20868;-83
2023/07/11 11:32:59;;;;;;;5.32;4.82;;;;;;;;;;5070878;28;20403;-84
2023/07/11 11:35:32;;;;;;;4.95;4.30;;;;;;;;;;5072046;28;20441;-85
2023/07/11 11:38:10;;;;;;;5.00;3.95;;;;;;;;;;5067737;28;20474;-83
2023/07/11 11:40:41;;;;;;;4.60;4.20;;;;;;;;;;5066951;28;20900;-83
2023/07/11 11:43:11;;;;;;;5.57;4.22;;;;;;;;;;5069928;28;20403;-83
2023/07/11 11:45:37;;;;;;;5.55;4.80;;;;;;;;;;5071932;28;20375;-84
2023/07/11 11:48:05;;;;;;;6.78;4.30;;;;;;;;;;5054208;28;20511;-83
2023/07/11 11:50:32;;;;;;;5.78;4.80;;;;;;;;;;5071791;28;20790;-83
2023/07/11 11:53:16;;;;;;;4.95;4.45;;;;;;;;;;5071985;28;20503;-83
2023/07/11 11:55:50;;;;;;;6.95;4.28;;;;;;;;;;5054537;28;20474;-83
2023/07/11 11:58:17;;;;;;;7.82;4.50;;;;;;;;;;5071692;28;20462;-83
2023/07/11 12:00:47;;;;;;;7.60;4.95;;;;;;;;;;5071801;28;20857;-85
2023/07/11 12:03:20;;;;;;;6.53;4.85;;;;;;;;;;5071796;28;20372;-83
2023/07/11 12:05:50;;;;;;;6.25;4.72;;;;;;;;;;5071822;28;20466;-84
2023/07/11 12:08:16;;;;;;;6.75;5.28;;;;;;;;;;5071644;28;20509;-84
2023/07/11 12:11:00;;;;;;;6.00;4.72;;;;;;;;;;5071638;28;20425;-84
2023/07/11 12:13:27;;;;;;;4.97;4.47;;;;;;;;;;5071704;28;20459;-83
2023/07/11 12:15:54;;;;;;;7.38;4.57;;;;;;;;;;5071822;28;20379;-84
2023/07/11 12:18:26;;;;;;;6.50;4.57;;;;;;;;;;5071420;28;20415;-83
2023/07/11 12:21:11;;;;;;;5.10;4.60;;;;;;;;;;5053647;28;20430;-83
2023/07/11 12:23:40;;;;;;;6.50;4.45;;;;;;;;;;5074692;28;20741;-84
2023/07/11 12:26:10;;;;;;;6.15;4.50;;;;;;;;;;5078784;28;20387;-84
2023/07/11 12:28:36;;;;;;;7.53;4.45;;;;;;;;;;5075424;28;20403;-84
2023/07/11 12:31:29;;;;;;;5.22;4.22;;;;;;;;;;5074983;28;20404;-83
2023/07/11 12:33:56;;;;;;;5.57;4.78;;;;;;;;;;5072687;28;20391;-83
2023/07/11 12:36:22;;;;;;;5.88;4.45;;;;;;;;;;5075275;28;20441;-84
2023/07/11 12:39:09;;;;;;;5.38;4.55;;;;;;;;;;5075333;28;20852;-83
2023/07/11 12:41:41;;;;;;;4.88;4.28;;;;;;;;;;5027419;28;20388;-83
2023/07/11 12:44:10;;;;;;;4.70;3.90;;;;;;;;;;5075287;28;20392;-83
2023/07/11 12:46:36;;;;;;;6.47;3.88;;;;;;;;;;5071454;28;20841;-84
2023/07/11 12:49:04;;;;;;;4.27;3.60;;;;;;;;;;5066911;28;20391;-84
2023/07/11 12:51:35;;;;;;;5.50;3.88;;;;;;;;;;5067184;28;20474;-84
2023/07/11 12:54:04;;;;;;;4.07;3.58;;;;;;;;;;5074955;28;20718;-85
2023/07/11 12:56:30;;;;;;;4.40;4.00;;;;;;;;;;5074754;28;20379;-83
2023/07/11 12:58:56;;;;;;;4.50;4.10;;;;;;;;;;5074817;28;20880;-83
2023/07/11 13:01:22;;;;;;;4.55;3.90;;;;;;;;;;5074775;28;20376;-83
2023/07/11 13:03:48;;;;;;;4.75;4.00;;;;;;;;;;5074831;28;20411;-83
2023/07/11 13:06:29;;;;;;;5.93;4.20;;;;;;;;;;5074714;28;20415;-83
2023/07/11 13:08:56;;;;;;;5.60;4.13;;;;;;;;;;5074855;28;20376;-84
2023/07/11 13:11:24;;;;;;;5.95;4.10;;;;;;;;;;5074066;28;20445;-84
2023/07/11 13:13:51;;;;;;;4.45;4.00;;;;;;;;;;5074509;28;20380;-84
2023/07/11 13:16:19;;;;;;;4.38;3.92;;;;;;;;;;5074630;28;20372;-84
2023/07/11 13:18:47;;;;;;;5.50;4.28;;;;;;;;;;5072580;28;20453;-84
2023/07/11 13:21:14;;;;;;;6.00;4.30;;;;;;;;;;5074571;28;20380;-84
2023/07/11 13:23:42;;;;;;;6.18;4.25;;;;;;;;;;5074329;28;20387;-84
2023/07/11 13:26:19;;;;;;;5.30;4.50;;;;;;;;;;5074283;28;20433;-84
2023/07/11 13:28:45;;;;;;;5.43;3.97;;;;;;;;;;5074266;28;20846;-84
2023/07/11 13:31:25;;;;;;;5.82;4.03;;;;;;;;;;5074243;28;20501;-84
2023/07/11 13:34:01;;;;;;;5.80;4.30;;;;;;;;;;5073927;28;20372;-84
2023/07/11 13:36:31;;;;;;;5.55;3.90;;;;;;;;;;5074274;28;20371;-84
2023/07/11 13:39:00;;;;;;;5.23;4.07;;;;;;;;;;5073998;28;20375;-85
2023/07/11 13:41:32;;;;;;;4.93;3.80;;;;;;;;;;5074407;28;20371;-84
2023/07/11 13:44:04;;;;;;;6.10;4.25;;;;;;;;;;5074050;28;20387;-84
2023/07/11 13:46:30;;;;;;;5.13;4.13;;;;;;;;;;5060663;28;20422;-84
2023/07/11 13:48:57;;;;;;;5.88;4.07;;;;;;;;;;5073935;28;20379;-85
2023/07/11 13:51:25;;;;;;;5.72;4.03;;;;;;;;;;5055690;28;20435;-84
2023/07/11 13:53:55;;;;;;;4.20;3.80;;;;;;;;;;5073967;28;20451;-84
2023/07/11 13:56:22;;;;;;;5.63;4.47;;;;;;;;;;5073724;28;20725;-84
2023/07/11 13:58:51;;;;;;;6.72;4.40;;;;;;;;;;5073703;28;20372;-84
2023/07/11 14:01:20;;;;;;;5.75;4.15;;;;;;;;;;5073540;28;20386;-84
2023/07/11 14:03:46;;;;;;;6.60;4.07;;;;;;;;;;5073656;28;20372;-84
2023/07/11 14:06:13;;;;;;;6.78;4.10;;;;;;;;;;5073453;28;20437;-85
2023/07/11 14:08:41;;;;;;;6.93;4.60;;;;;;;;;;5073701;28;20383;-84
2023/07/11 14:11:20;;;;;;;7.97;4.30;;;;;;;;;;5073520;28;20396;-84
2023/07/11 14:13:46;;;;;;;5.88;4.20;;;;;;;;;;5069155;28;20371;-85
2023/07/11 14:16:12;;;;;;;5.68;4.40;;;;;;;;;;5073546;28;20380;-84
2023/07/11 14:18:38;;;;;;;4.72;4.22;;;;;;;;;;5073019;28;20399;-84
2023/07/11 14:21:04;;;;;;;5.03;4.57;;;;;;;;;;5073442;28;20433;-84
2023/07/11 14:23:30;;;;;;;5.55;4.20;;;;;;;;;;5073169;28;20383;-84
2023/07/11 14:25:56;;;;;;;6.60;4.28;;;;;;;;;;5076575;28;20383;-84
2023/07/11 14:28:23;;;;;;;6.55;4.25;;;;;;;;;;5073167;28;20384;-85
2023/07/11 14:30:50;;;;;;;4.82;4.38;;;;;;;;;;5072883;28;20375;-84
2023/07/11 14:33:20;;;;;;;4.82;4.18;;;;;;;;;;5073196;28;20421;-85
2023/07/11 14:35:47;;;;;;;8.02;4.30;;;;;;;;;;5072314;28;20368;-85
2023/07/11 14:38:20;;;;;;;5.32;4.32;;;;;;;;;;5072960;28;20378;-83
2023/07/11 14:40:46;;;;;;;5.63;4.53;;;;;;;;;;5069760;28;20429;-84
2023/07/11 14:43:13;;;;;;;7.63;4.18;;;;;;;;;;5072749;28;20415;-84
2023/07/11 14:45:40;;;;;;;6.05;3.95;;;;;;;;;;5052159;28;20796;-85
2023/07/11 14:48:13;;;;;;;6.80;4.20;;;;;;;;;;5072657;28;20390;-85
2023/07/11 14:50:39;;;;;;;8.03;4.53;;;;;;;;;;5072704;28;20368;-85
2023/07/11 14:53:05;;;;;;;5.40;3.90;;;;;;;;;;5072586;28;20449;-85